Harbor Beach, Michigan
Current Conditions -  °F | °C
As of 4:16 PM on Sunday 23 Nov 2014 (Local Time) from KBAX Reporting Station
Broken Clouds Broken Clouds  
Wind Chill: 41°   Ceiling: 10000
Heat Index: 46°   Visibility: 10mi
Dew Point: 44°   Wind: 12mph
Humidity: 92%   Direction: 160°SSE
Pressure: 29.69"   Gusts: 17mph
Location:  43.84°N, 82.65°W
Report Text: KBAX 232116Z AUTO 16010G15KT 10SM BKN100 BKN120 08/07 A2969 RMK AO2 T00800068
Loading
Personal Weather Stations






























Interactive Weather Map New forecast layout! Learn more

10-Day Weather Forecast

Advertisements
Track Severe Weather on mobile